<?xml version="1.0" encoding="UTF-8" standalone="no" ?>
<gpx xmlns="http://www.topografix.com/GPX/1/1" xmlns:xsi="http://www.w3.org/2001/XMLSchema-instance" xsi:schemaLocation="http://www.topografix.com/GPX/1/1 http://www.topografix.com/GPX/1/1/gpx.xsd" version="1.1" creator="VisuGPX - https://www.visugpx.com">
  <metadata>
    <name>Prayssas 01</name>
    <desc><![CDATA[Circuit 1 de Prayssas]]></desc>
  </metadata>
  <trk>
    <name><![CDATA[01-PrayssasGaujaNeguenou 21-530]]></name>
    <desc><![CDATA[fait le 01/09/2012

chouette circuit]]></desc>
    <trkseg>
      <trkpt lat="44.28843" lon="0.50826">
        <ele>47.24</ele>
        <time>2012-09-01T06:50:34Z</time>
      </trkpt>
      <trkpt lat="44.28843" lon="0.50821">
        <ele>131.84</ele>
        <time>2012-09-01T06:51:20Z</time>
      </trkpt>
      <trkpt lat="44.28843" lon="0.50817">
        <ele>145.78</ele>
        <time>2012-09-01T06:51:32Z</time>
      </trkpt>
      <trkpt lat="44.28847" lon="0.50815">
        <ele>149.14</ele>
        <time>2012-09-01T06:51:35Z</time>
      </trkpt>
      <trkpt lat="44.2885" lon="0.5082">
        <ele>164.04</ele>
        <time>2012-09-01T06:52:01Z</time>
      </trkpt>
      <trkpt lat="44.28849" lon="0.50825">
        <ele>170.29</ele>
        <time>2012-09-01T06:52:22Z</time>
      </trkpt>
      <trkpt lat="44.28848" lon="0.50823">
        <ele>172.21</ele>
        <time>2012-09-01T06:52:35Z</time>
      </trkpt>
      <trkpt lat="44.28843" lon="0.508">
        <ele>172.69</ele>
        <time>2012-09-01T06:52:44Z</time>
      </trkpt>
      <trkpt lat="44.28832" lon="0.50772">
        <ele>172.69</ele>
        <time>2012-09-01T06:52:52Z</time>
      </trkpt>
      <trkpt lat="44.28855" lon="0.5075">
        <ele>171.25</ele>
        <time>2012-09-01T06:53:02Z</time>
      </trkpt>
      <trkpt lat="44.28931" lon="0.50693">
        <ele>166.93</ele>
        <time>2012-09-01T06:53:19Z</time>
      </trkpt>
      <trkpt lat="44.28951" lon="0.50677">
        <ele>164.52</ele>
        <time>2012-09-01T06:53:23Z</time>
      </trkpt>
      <trkpt lat="44.29041" lon="0.50617">
        <ele>158.75</ele>
        <time>2012-09-01T06:53:42Z</time>
      </trkpt>
      <trkpt lat="44.29122" lon="0.50601">
        <ele>161.64</ele>
        <time>2012-09-01T06:54:07Z</time>
      </trkpt>
      <trkpt lat="44.29149" lon="0.50609">
        <ele>160.68</ele>
        <time>2012-09-01T06:54:14Z</time>
      </trkpt>
      <trkpt lat="44.29174" lon="0.50557">
        <ele>153.95</ele>
        <time>2012-09-01T06:54:24Z</time>
      </trkpt>
      <trkpt lat="44.29178" lon="0.50514">
        <ele>150.58</ele>
        <time>2012-09-01T06:54:31Z</time>
      </trkpt>
      <trkpt lat="44.29126" lon="0.50474">
        <ele>149.62</ele>
        <time>2012-09-01T06:54:47Z</time>
      </trkpt>
      <trkpt lat="44.29107" lon="0.50455">
        <ele>147.22</ele>
        <time>2012-09-01T06:54:52Z</time>
      </trkpt>
      <trkpt lat="44.29111" lon="0.50418">
        <ele>144.34</ele>
        <time>2012-09-01T06:54:58Z</time>
      </trkpt>
      <trkpt lat="44.29188" lon="0.5027">
        <ele>137.61</ele>
        <time>2012-09-01T06:55:25Z</time>
      </trkpt>
      <trkpt lat="44.2922" lon="0.50284">
        <ele>134.72</ele>
        <time>2012-09-01T06:55:38Z</time>
      </trkpt>
      <trkpt lat="44.29238" lon="0.50321">
        <ele>127.03</ele>
        <time>2012-09-01T06:55:52Z</time>
      </trkpt>
      <trkpt lat="44.29256" lon="0.50302">
        <ele>119.82</ele>
        <time>2012-09-01T06:56:09Z</time>
      </trkpt>
      <trkpt lat="44.29272" lon="0.50293">
        <ele>115.01</ele>
        <time>2012-09-01T06:56:19Z</time>
      </trkpt>
      <trkpt lat="44.29297" lon="0.50251">
        <ele>114.53</ele>
        <time>2012-09-01T06:56:31Z</time>
      </trkpt>
      <trkpt lat="44.29319" lon="0.50177">
        <ele>120.78</ele>
        <time>2012-09-01T06:56:53Z</time>
      </trkpt>
      <trkpt lat="44.29301" lon="0.50152">
        <ele>115.98</ele>
        <time>2012-09-01T06:56:59Z</time>
      </trkpt>
      <trkpt lat="44.29273" lon="0.50117">
        <ele>113.09</ele>
        <time>2012-09-01T06:57:08Z</time>
      </trkpt>
      <trkpt lat="44.29178" lon="0.50065">
        <ele>111.17</ele>
        <time>2012-09-01T06:57:32Z</time>
      </trkpt>
      <trkpt lat="44.2916" lon="0.49984">
        <ele>112.61</ele>
        <time>2012-09-01T06:57:49Z</time>
      </trkpt>
      <trkpt lat="44.29123" lon="0.49924">
        <ele>112.13</ele>
        <time>2012-09-01T06:58:04Z</time>
      </trkpt>
      <trkpt lat="44.28933" lon="0.49674">
        <ele>116.46</ele>
        <time>2012-09-01T06:59:13Z</time>
      </trkpt>
      <trkpt lat="44.2895" lon="0.49624">
        <ele>117.9</ele>
        <time>2012-09-01T06:59:24Z</time>
      </trkpt>
      <trkpt lat="44.29019" lon="0.49515">
        <ele>123.67</ele>
        <time>2012-09-01T06:59:57Z</time>
      </trkpt>
      <trkpt lat="44.29061" lon="0.49457">
        <ele>127.99</ele>
        <time>2012-09-01T07:00:20Z</time>
      </trkpt>
      <trkpt lat="44.29077" lon="0.49411">
        <ele>129.92</ele>
        <time>2012-09-01T07:00:35Z</time>
      </trkpt>
      <trkpt lat="44.29157" lon="0.49216">
        <ele>137.13</ele>
        <time>2012-09-01T07:01:34Z</time>
      </trkpt>
      <trkpt lat="44.29176" lon="0.49136">
        <ele>140.01</ele>
        <time>2012-09-01T07:01:57Z</time>
      </trkpt>
      <trkpt lat="44.29175" lon="0.49034">
        <ele>144.34</ele>
        <time>2012-09-01T07:02:29Z</time>
      </trkpt>
      <trkpt lat="44.29141" lon="0.49105">
        <ele>150.1</ele>
        <time>2012-09-01T07:03:00Z</time>
      </trkpt>
      <trkpt lat="44.29064" lon="0.49125">
        <ele>155.39</ele>
        <time>2012-09-01T07:03:42Z</time>
      </trkpt>
      <trkpt lat="44.29048" lon="0.49104">
        <ele>159.24</ele>
        <time>2012-09-01T07:03:57Z</time>
      </trkpt>
      <trkpt lat="44.29046" lon="0.49094">
        <ele>159.72</ele>
        <time>2012-09-01T07:04:02Z</time>
      </trkpt>
      <trkpt lat="44.29046" lon="0.49041">
        <ele>165.96</ele>
        <time>2012-09-01T07:04:29Z</time>
      </trkpt>
      <trkpt lat="44.29049" lon="0.48742">
        <ele>172.21</ele>
        <time>2012-09-01T07:06:07Z</time>
      </trkpt>
      <trkpt lat="44.29039" lon="0.4873">
        <ele>172.69</ele>
        <time>2012-09-01T07:06:32Z</time>
      </trkpt>
      <trkpt lat="44.29039" lon="0.48655">
        <ele>173.66</ele>
        <time>2012-09-01T07:07:14Z</time>
      </trkpt>
      <trkpt lat="44.29012" lon="0.48561">
        <ele>178.94</ele>
        <time>2012-09-01T07:07:40Z</time>
      </trkpt>
      <trkpt lat="44.28986" lon="0.48518">
        <ele>184.23</ele>
        <time>2012-09-01T07:07:59Z</time>
      </trkpt>
      <trkpt lat="44.28939" lon="0.48763">
        <ele>177.98</ele>
        <time>2012-09-01T07:10:51Z</time>
      </trkpt>
      <trkpt lat="44.28872" lon="0.48776">
        <ele>173.66</ele>
        <time>2012-09-01T07:11:12Z</time>
      </trkpt>
      <trkpt lat="44.28836" lon="0.48809">
        <ele>172.21</ele>
        <time>2012-09-01T07:11:20Z</time>
      </trkpt>
      <trkpt lat="44.28791" lon="0.48777">
        <ele>168.85</ele>
        <time>2012-09-01T07:11:36Z</time>
      </trkpt>
      <trkpt lat="44.28762" lon="0.48771">
        <ele>165</ele>
        <time>2012-09-01T07:11:48Z</time>
      </trkpt>
      <trkpt lat="44.28743" lon="0.48781">
        <ele>158.75</ele>
        <time>2012-09-01T07:11:56Z</time>
      </trkpt>
      <trkpt lat="44.28683" lon="0.48742">
        <ele>156.83</ele>
        <time>2012-09-01T07:12:11Z</time>
      </trkpt>
      <trkpt lat="44.28616" lon="0.48752">
        <ele>158.75</ele>
        <time>2012-09-01T07:12:30Z</time>
      </trkpt>
      <trkpt lat="44.28549" lon="0.48793">
        <ele>158.27</ele>
        <time>2012-09-01T07:12:50Z</time>
      </trkpt>
      <trkpt lat="44.28525" lon="0.48782">
        <ele>158.27</ele>
        <time>2012-09-01T07:12:57Z</time>
      </trkpt>
      <trkpt lat="44.28492" lon="0.48773">
        <ele>153.95</ele>
        <time>2012-09-01T07:13:05Z</time>
      </trkpt>
      <trkpt lat="44.28472" lon="0.4896">
        <ele>147.7</ele>
        <time>2012-09-01T07:13:39Z</time>
      </trkpt>
      <trkpt lat="44.2847" lon="0.49">
        <ele>142.89</ele>
        <time>2012-09-01T07:13:52Z</time>
      </trkpt>
      <trkpt lat="44.28457" lon="0.49051">
        <ele>129.43</ele>
        <time>2012-09-01T07:14:47Z</time>
      </trkpt>
      <trkpt lat="44.28476" lon="0.49062">
        <ele>122.71</ele>
        <time>2012-09-01T07:15:28Z</time>
      </trkpt>
      <trkpt lat="44.2845" lon="0.4908">
        <ele>119.82</ele>
        <time>2012-09-01T07:15:38Z</time>
      </trkpt>
      <trkpt lat="44.28433" lon="0.49091">
        <ele>118.38</ele>
        <time>2012-09-01T07:15:42Z</time>
      </trkpt>
      <trkpt lat="44.28318" lon="0.49037">
        <ele>117.9</ele>
        <time>2012-09-01T07:16:10Z</time>
      </trkpt>
      <trkpt lat="44.28298" lon="0.49009">
        <ele>116.94</ele>
        <time>2012-09-01T07:16:16Z</time>
      </trkpt>
      <trkpt lat="44.28305" lon="0.48851">
        <ele>115.01</ele>
        <time>2012-09-01T07:16:42Z</time>
      </trkpt>
      <trkpt lat="44.28275" lon="0.48917">
        <ele>110.69</ele>
        <time>2012-09-01T07:16:56Z</time>
      </trkpt>
      <trkpt lat="44.2825" lon="0.48979">
        <ele>108.29</ele>
        <time>2012-09-01T07:17:04Z</time>
      </trkpt>
      <trkpt lat="44.28248" lon="0.48998">
        <ele>107.81</ele>
        <time>2012-09-01T07:17:06Z</time>
      </trkpt>
      <trkpt lat="44.2825" lon="0.49017">
        <ele>106.84</ele>
        <time>2012-09-01T07:17:08Z</time>
      </trkpt>
      <trkpt lat="44.28254" lon="0.49036">
        <ele>105.88</ele>
        <time>2012-09-01T07:17:10Z</time>
      </trkpt>
      <trkpt lat="44.28313" lon="0.49142">
        <ele>100.6</ele>
        <time>2012-09-01T07:17:29Z</time>
      </trkpt>
      <trkpt lat="44.28197" lon="0.49066">
        <ele>92.42</ele>
        <time>2012-09-01T07:18:01Z</time>
      </trkpt>
      <trkpt lat="44.28158" lon="0.49102">
        <ele>93.39</ele>
        <time>2012-09-01T07:18:16Z</time>
      </trkpt>
      <trkpt lat="44.28125" lon="0.49104">
        <ele>92.9</ele>
        <time>2012-09-01T07:18:27Z</time>
      </trkpt>
      <trkpt lat="44.28056" lon="0.49105">
        <ele>86.18</ele>
        <time>2012-09-01T07:18:42Z</time>
      </trkpt>
      <trkpt lat="44.27963" lon="0.49074">
        <ele>84.73</ele>
        <time>2012-09-01T07:19:07Z</time>
      </trkpt>
      <trkpt lat="44.2789" lon="0.4902">
        <ele>85.69</ele>
        <time>2012-09-01T07:19:27Z</time>
      </trkpt>
      <trkpt lat="44.27824" lon="0.49012">
        <ele>83.77</ele>
        <time>2012-09-01T07:19:41Z</time>
      </trkpt>
      <trkpt lat="44.27581" lon="0.48881">
        <ele>85.69</ele>
        <time>2012-09-01T07:20:52Z</time>
      </trkpt>
      <trkpt lat="44.27525" lon="0.48847">
        <ele>84.73</ele>
        <time>2012-09-01T07:21:07Z</time>
      </trkpt>
      <trkpt lat="44.27473" lon="0.48892">
        <ele>78</ele>
        <time>2012-09-01T07:21:19Z</time>
      </trkpt>
      <trkpt lat="44.27467" lon="0.48887">
        <ele>78</ele>
        <time>2012-09-01T07:21:21Z</time>
      </trkpt>
      <trkpt lat="44.27464" lon="0.48885">
        <ele>77.52</ele>
        <time>2012-09-01T07:21:22Z</time>
      </trkpt>
      <trkpt lat="44.27458" lon="0.48882">
        <ele>78</ele>
        <time>2012-09-01T07:21:41Z</time>
      </trkpt>
      <trkpt lat="44.27473" lon="0.48775">
        <ele>87.14</ele>
        <time>2012-09-01T07:22:22Z</time>
      </trkpt>
      <trkpt lat="44.27408" lon="0.48686">
        <ele>96.75</ele>
        <time>2012-09-01T07:23:08Z</time>
      </trkpt>
      <trkpt lat="44.27341" lon="0.48586">
        <ele>107.81</ele>
        <time>2012-09-01T07:24:03Z</time>
      </trkpt>
      <trkpt lat="44.27313" lon="0.48573">
        <ele>111.65</ele>
        <time>2012-09-01T07:24:25Z</time>
      </trkpt>
      <trkpt lat="44.27338" lon="0.48555">
        <ele>115.5</ele>
        <time>2012-09-01T07:24:46Z</time>
      </trkpt>
      <trkpt lat="44.27481" lon="0.48606">
        <ele>131.84</ele>
        <time>2012-09-01T07:26:25Z</time>
      </trkpt>
      <trkpt lat="44.27487" lon="0.48227">
        <ele>163.56</ele>
        <time>2012-09-01T07:29:18Z</time>
      </trkpt>
      <trkpt lat="44.27311" lon="0.48203">
        <ele>161.16</ele>
        <time>2012-09-01T07:30:01Z</time>
      </trkpt>
      <trkpt lat="44.27287" lon="0.48526">
        <ele>135.68</ele>
        <time>2012-09-01T07:34:00Z</time>
      </trkpt>
      <trkpt lat="44.27218" lon="0.48502">
        <ele>133.76</ele>
        <time>2012-09-01T07:34:22Z</time>
      </trkpt>
      <trkpt lat="44.27117" lon="0.48498">
        <ele>135.68</ele>
        <time>2012-09-01T07:34:53Z</time>
      </trkpt>
      <trkpt lat="44.27021" lon="0.48455">
        <ele>141.93</ele>
        <time>2012-09-01T07:35:27Z</time>
      </trkpt>
      <trkpt lat="44.26975" lon="0.48448">
        <ele>139.53</ele>
        <time>2012-09-01T07:35:41Z</time>
      </trkpt>
      <trkpt lat="44.26907" lon="0.48443">
        <ele>138.09</ele>
        <time>2012-09-01T07:35:55Z</time>
      </trkpt>
      <trkpt lat="44.26869" lon="0.48418">
        <ele>135.68</ele>
        <time>2012-09-01T07:36:03Z</time>
      </trkpt>
      <trkpt lat="44.26856" lon="0.48344">
        <ele>135.2</ele>
        <time>2012-09-01T07:36:16Z</time>
      </trkpt>
      <trkpt lat="44.26855" lon="0.48308">
        <ele>133.76</ele>
        <time>2012-09-01T07:36:21Z</time>
      </trkpt>
      <trkpt lat="44.26844" lon="0.48192">
        <ele>130.4</ele>
        <time>2012-09-01T07:36:41Z</time>
      </trkpt>
      <trkpt lat="44.26836" lon="0.4823">
        <ele>123.67</ele>
        <time>2012-09-01T07:36:52Z</time>
      </trkpt>
      <trkpt lat="44.26834" lon="0.48263">
        <ele>120.78</ele>
        <time>2012-09-01T07:36:56Z</time>
      </trkpt>
      <trkpt lat="44.26831" lon="0.48333">
        <ele>117.9</ele>
        <time>2012-09-01T07:37:04Z</time>
      </trkpt>
      <trkpt lat="44.26823" lon="0.48381">
        <ele>112.61</ele>
        <time>2012-09-01T07:37:10Z</time>
      </trkpt>
      <trkpt lat="44.26819" lon="0.48403">
        <ele>109.73</ele>
        <time>2012-09-01T07:37:14Z</time>
      </trkpt>
      <trkpt lat="44.26855" lon="0.48505">
        <ele>102.52</ele>
        <time>2012-09-01T07:37:31Z</time>
      </trkpt>
      <trkpt lat="44.2686" lon="0.48532">
        <ele>101.56</ele>
        <time>2012-09-01T07:37:37Z</time>
      </trkpt>
      <trkpt lat="44.26836" lon="0.48553">
        <ele>97.23</ele>
        <time>2012-09-01T07:37:43Z</time>
      </trkpt>
      <trkpt lat="44.26809" lon="0.48529">
        <ele>95.31</ele>
        <time>2012-09-01T07:37:50Z</time>
      </trkpt>
      <trkpt lat="44.26805" lon="0.48523">
        <ele>94.83</ele>
        <time>2012-09-01T07:37:51Z</time>
      </trkpt>
      <trkpt lat="44.26802" lon="0.48515">
        <ele>93.87</ele>
        <time>2012-09-01T07:37:52Z</time>
      </trkpt>
      <trkpt lat="44.26785" lon="0.48481">
        <ele>90.5</ele>
        <time>2012-09-01T07:37:56Z</time>
      </trkpt>
      <trkpt lat="44.26772" lon="0.48466">
        <ele>87.62</ele>
        <time>2012-09-01T07:37:58Z</time>
      </trkpt>
      <trkpt lat="44.26756" lon="0.48457">
        <ele>85.21</ele>
        <time>2012-09-01T07:38:00Z</time>
      </trkpt>
      <trkpt lat="44.26736" lon="0.48456">
        <ele>81.37</ele>
        <time>2012-09-01T07:38:02Z</time>
      </trkpt>
      <trkpt lat="44.26678" lon="0.48476">
        <ele>72.24</ele>
        <time>2012-09-01T07:38:17Z</time>
      </trkpt>
      <trkpt lat="44.26837" lon="0.48783">
        <ele>70.79</ele>
        <time>2012-09-01T07:39:23Z</time>
      </trkpt>
      <trkpt lat="44.26895" lon="0.49008">
        <ele>80.89</ele>
        <time>2012-09-01T07:40:22Z</time>
      </trkpt>
      <trkpt lat="44.26897" lon="0.49031">
        <ele>85.69</ele>
        <time>2012-09-01T07:40:35Z</time>
      </trkpt>
      <trkpt lat="44.26892" lon="0.49063">
        <ele>87.62</ele>
        <time>2012-09-01T07:40:51Z</time>
      </trkpt>
      <trkpt lat="44.26889" lon="0.491">
        <ele>90.5</ele>
        <time>2012-09-01T07:41:09Z</time>
      </trkpt>
      <trkpt lat="44.26915" lon="0.49172">
        <ele>103.96</ele>
        <time>2012-09-01T07:42:02Z</time>
      </trkpt>
      <trkpt lat="44.26928" lon="0.49137">
        <ele>109.25</ele>
        <time>2012-09-01T07:43:37Z</time>
      </trkpt>
      <trkpt lat="44.26948" lon="0.49178">
        <ele>117.42</ele>
        <time>2012-09-01T07:44:08Z</time>
      </trkpt>
      <trkpt lat="44.26958" lon="0.49195">
        <ele>119.82</ele>
        <time>2012-09-01T07:44:21Z</time>
      </trkpt>
      <trkpt lat="44.26966" lon="0.49204">
        <ele>122.71</ele>
        <time>2012-09-01T07:44:30Z</time>
      </trkpt>
      <trkpt lat="44.27011" lon="0.49244">
        <ele>129.43</ele>
        <time>2012-09-01T07:45:13Z</time>
      </trkpt>
      <trkpt lat="44.27027" lon="0.49259">
        <ele>130.88</ele>
        <time>2012-09-01T07:45:25Z</time>
      </trkpt>
      <trkpt lat="44.27058" lon="0.493">
        <ele>135.68</ele>
        <time>2012-09-01T07:45:51Z</time>
      </trkpt>
      <trkpt lat="44.2716" lon="0.49302">
        <ele>142.41</ele>
        <time>2012-09-01T07:46:54Z</time>
      </trkpt>
      <trkpt lat="44.27187" lon="0.49409">
        <ele>148.18</ele>
        <time>2012-09-01T07:47:44Z</time>
      </trkpt>
      <trkpt lat="44.27254" lon="0.49439">
        <ele>158.75</ele>
        <time>2012-09-01T07:48:28Z</time>
      </trkpt>
      <trkpt lat="44.27266" lon="0.49466">
        <ele>161.16</ele>
        <time>2012-09-01T07:48:43Z</time>
      </trkpt>
      <trkpt lat="44.27284" lon="0.49497">
        <ele>163.56</ele>
        <time>2012-09-01T07:49:00Z</time>
      </trkpt>
      <trkpt lat="44.27348" lon="0.49556">
        <ele>163.08</ele>
        <time>2012-09-01T07:49:29Z</time>
      </trkpt>
      <trkpt lat="44.27375" lon="0.49563">
        <ele>162.12</ele>
        <time>2012-09-01T07:49:35Z</time>
      </trkpt>
      <trkpt lat="44.27402" lon="0.49575">
        <ele>158.75</ele>
        <time>2012-09-01T07:49:40Z</time>
      </trkpt>
      <trkpt lat="44.27414" lon="0.49585">
        <ele>157.31</ele>
        <time>2012-09-01T07:49:42Z</time>
      </trkpt>
      <trkpt lat="44.27437" lon="0.49609">
        <ele>155.87</ele>
        <time>2012-09-01T07:49:46Z</time>
      </trkpt>
      <trkpt lat="44.27484" lon="0.49603">
        <ele>157.31</ele>
        <time>2012-09-01T07:49:55Z</time>
      </trkpt>
      <trkpt lat="44.27513" lon="0.49629">
        <ele>158.75</ele>
        <time>2012-09-01T07:50:07Z</time>
      </trkpt>
      <trkpt lat="44.27596" lon="0.4973">
        <ele>163.08</ele>
        <time>2012-09-01T07:50:46Z</time>
      </trkpt>
      <trkpt lat="44.2764" lon="0.49861">
        <ele>165.48</ele>
        <time>2012-09-01T07:51:21Z</time>
      </trkpt>
      <trkpt lat="44.27733" lon="0.49916">
        <ele>167.89</ele>
        <time>2012-09-01T07:51:55Z</time>
      </trkpt>
      <trkpt lat="44.27768" lon="0.49955">
        <ele>168.37</ele>
        <time>2012-09-01T07:52:09Z</time>
      </trkpt>
      <trkpt lat="44.27986" lon="0.50061">
        <ele>168.85</ele>
        <time>2012-09-01T07:53:18Z</time>
      </trkpt>
      <trkpt lat="44.28025" lon="0.49893">
        <ele>165.48</ele>
        <time>2012-09-01T07:53:54Z</time>
      </trkpt>
      <trkpt lat="44.2804" lon="0.49843">
        <ele>160.2</ele>
        <time>2012-09-01T07:54:05Z</time>
      </trkpt>
      <trkpt lat="44.28132" lon="0.49877">
        <ele>167.89</ele>
        <time>2012-09-01T07:54:50Z</time>
      </trkpt>
      <trkpt lat="44.28192" lon="0.49938">
        <ele>168.85</ele>
        <time>2012-09-01T07:55:17Z</time>
      </trkpt>
      <trkpt lat="44.28311" lon="0.49987">
        <ele>165.48</ele>
        <time>2012-09-01T07:55:47Z</time>
      </trkpt>
      <trkpt lat="44.28422" lon="0.50069">
        <ele>165.48</ele>
        <time>2012-09-01T07:56:18Z</time>
      </trkpt>
      <trkpt lat="44.28442" lon="0.50088">
        <ele>166.45</ele>
        <time>2012-09-01T07:56:25Z</time>
      </trkpt>
      <trkpt lat="44.28466" lon="0.50154">
        <ele>166.45</ele>
        <time>2012-09-01T07:56:40Z</time>
      </trkpt>
      <trkpt lat="44.28459" lon="0.50173">
        <ele>166.93</ele>
        <time>2012-09-01T07:56:45Z</time>
      </trkpt>
      <trkpt lat="44.28412" lon="0.5024">
        <ele>164.04</ele>
        <time>2012-09-01T07:57:01Z</time>
      </trkpt>
      <trkpt lat="44.28401" lon="0.5029">
        <ele>159.72</ele>
        <time>2012-09-01T07:57:11Z</time>
      </trkpt>
      <trkpt lat="44.28489" lon="0.50451">
        <ele>160.68</ele>
        <time>2012-09-01T07:57:53Z</time>
      </trkpt>
      <trkpt lat="44.28546" lon="0.50602">
        <ele>163.08</ele>
        <time>2012-09-01T07:58:27Z</time>
      </trkpt>
      <trkpt lat="44.28577" lon="0.50679">
        <ele>164.52</ele>
        <time>2012-09-01T07:58:51Z</time>
      </trkpt>
      <trkpt lat="44.28639" lon="0.50758">
        <ele>171.25</ele>
        <time>2012-09-01T07:59:24Z</time>
      </trkpt>
      <trkpt lat="44.28615" lon="0.50872">
        <ele>169.81</ele>
        <time>2012-09-01T07:59:51Z</time>
      </trkpt>
      <trkpt lat="44.28636" lon="0.5092">
        <ele>170.29</ele>
        <time>2012-09-01T08:00:03Z</time>
      </trkpt>
      <trkpt lat="44.2866" lon="0.50966">
        <ele>167.89</ele>
        <time>2012-09-01T08:00:15Z</time>
      </trkpt>
      <trkpt lat="44.28665" lon="0.50967">
        <ele>167.89</ele>
        <time>2012-09-01T08:00:17Z</time>
      </trkpt>
      <trkpt lat="44.2867" lon="0.50966">
        <ele>168.37</ele>
        <time>2012-09-01T08:00:19Z</time>
      </trkpt>
      <trkpt lat="44.28673" lon="0.50968">
        <ele>168.37</ele>
        <time>2012-09-01T08:00:22Z</time>
      </trkpt>
      <trkpt lat="44.28621" lon="0.51002">
        <ele>163.56</ele>
        <time>2012-09-01T08:00:43Z</time>
      </trkpt>
      <trkpt lat="44.28576" lon="0.51041">
        <ele>159.24</ele>
        <time>2012-09-01T08:00:52Z</time>
      </trkpt>
      <trkpt lat="44.28492" lon="0.51105">
        <ele>152.51</ele>
        <time>2012-09-01T08:01:12Z</time>
      </trkpt>
      <trkpt lat="44.28437" lon="0.5112">
        <ele>143.37</ele>
        <time>2012-09-01T08:01:25Z</time>
      </trkpt>
      <trkpt lat="44.28315" lon="0.51143">
        <ele>133.28</ele>
        <time>2012-09-01T08:01:47Z</time>
      </trkpt>
      <trkpt lat="44.28289" lon="0.51221">
        <ele>128.47</ele>
        <time>2012-09-01T08:01:59Z</time>
      </trkpt>
      <trkpt lat="44.28298" lon="0.51281">
        <ele>122.71</ele>
        <time>2012-09-01T08:02:08Z</time>
      </trkpt>
      <trkpt lat="44.28314" lon="0.51307">
        <ele>117.42</ele>
        <time>2012-09-01T08:02:14Z</time>
      </trkpt>
      <trkpt lat="44.28317" lon="0.51312">
        <ele>116.46</ele>
        <time>2012-09-01T08:02:16Z</time>
      </trkpt>
      <trkpt lat="44.28318" lon="0.51322">
        <ele>114.53</ele>
        <time>2012-09-01T08:02:20Z</time>
      </trkpt>
      <trkpt lat="44.28288" lon="0.51387">
        <ele>100.11</ele>
        <time>2012-09-01T08:02:38Z</time>
      </trkpt>
      <trkpt lat="44.28258" lon="0.51438">
        <ele>92.9</ele>
        <time>2012-09-01T08:03:04Z</time>
      </trkpt>
      <trkpt lat="44.2822" lon="0.5138">
        <ele>93.87</ele>
        <time>2012-09-01T08:03:30Z</time>
      </trkpt>
      <trkpt lat="44.28202" lon="0.5139">
        <ele>90.02</ele>
        <time>2012-09-01T08:03:34Z</time>
      </trkpt>
      <trkpt lat="44.28171" lon="0.51411">
        <ele>82.81</ele>
        <time>2012-09-01T08:03:38Z</time>
      </trkpt>
      <trkpt lat="44.28037" lon="0.51518">
        <ele>80.41</ele>
        <time>2012-09-01T08:04:00Z</time>
      </trkpt>
      <trkpt lat="44.28051" lon="0.51604">
        <ele>81.85</ele>
        <time>2012-09-01T08:04:40Z</time>
      </trkpt>
      <trkpt lat="44.27994" lon="0.51692">
        <ele>88.1</ele>
        <time>2012-09-01T08:06:03Z</time>
      </trkpt>
      <trkpt lat="44.2799" lon="0.51694">
        <ele>88.1</ele>
        <time>2012-09-01T08:08:00Z</time>
      </trkpt>
      <trkpt lat="44.28035" lon="0.51819">
        <ele>106.36</ele>
        <time>2012-09-01T08:09:25Z</time>
      </trkpt>
      <trkpt lat="44.2805" lon="0.51899">
        <ele>113.09</ele>
        <time>2012-09-01T08:10:18Z</time>
      </trkpt>
      <trkpt lat="44.28069" lon="0.51893">
        <ele>107.81</ele>
        <time>2012-09-01T08:10:25Z</time>
      </trkpt>
      <trkpt lat="44.28109" lon="0.51867">
        <ele>100.11</ele>
        <time>2012-09-01T08:10:36Z</time>
      </trkpt>
      <trkpt lat="44.28154" lon="0.51923">
        <ele>96.75</ele>
        <time>2012-09-01T08:10:52Z</time>
      </trkpt>
      <trkpt lat="44.28187" lon="0.52086">
        <ele>96.75</ele>
        <time>2012-09-01T08:11:36Z</time>
      </trkpt>
      <trkpt lat="44.28204" lon="0.52153">
        <ele>90.5</ele>
        <time>2012-09-01T08:11:51Z</time>
      </trkpt>
      <trkpt lat="44.28241" lon="0.52228">
        <ele>85.69</ele>
        <time>2012-09-01T08:12:05Z</time>
      </trkpt>
      <trkpt lat="44.28279" lon="0.5224">
        <ele>81.85</ele>
        <time>2012-09-01T08:12:14Z</time>
      </trkpt>
      <trkpt lat="44.28297" lon="0.52285">
        <ele>81.37</ele>
        <time>2012-09-01T08:12:25Z</time>
      </trkpt>
      <trkpt lat="44.2832" lon="0.52507">
        <ele>83.77</ele>
        <time>2012-09-01T08:13:36Z</time>
      </trkpt>
      <trkpt lat="44.28352" lon="0.52632">
        <ele>82.33</ele>
        <time>2012-09-01T08:14:30Z</time>
      </trkpt>
      <trkpt lat="44.28337" lon="0.52729">
        <ele>85.21</ele>
        <time>2012-09-01T08:14:52Z</time>
      </trkpt>
      <trkpt lat="44.28434" lon="0.52681">
        <ele>83.29</ele>
        <time>2012-09-01T08:15:19Z</time>
      </trkpt>
      <trkpt lat="44.2869" lon="0.52489">
        <ele>96.75</ele>
        <time>2012-09-01T08:17:09Z</time>
      </trkpt>
      <trkpt lat="44.287" lon="0.52517">
        <ele>99.15</ele>
        <time>2012-09-01T08:17:25Z</time>
      </trkpt>
      <trkpt lat="44.28762" lon="0.52521">
        <ele>110.69</ele>
        <time>2012-09-01T08:18:13Z</time>
      </trkpt>
      <trkpt lat="44.28796" lon="0.52549">
        <ele>119.34</ele>
        <time>2012-09-01T08:18:51Z</time>
      </trkpt>
      <trkpt lat="44.28814" lon="0.52637">
        <ele>131.84</ele>
        <time>2012-09-01T08:19:58Z</time>
      </trkpt>
      <trkpt lat="44.28841" lon="0.52717">
        <ele>138.57</ele>
        <time>2012-09-01T08:20:48Z</time>
      </trkpt>
      <trkpt lat="44.28856" lon="0.5274">
        <ele>139.53</ele>
        <time>2012-09-01T08:21:00Z</time>
      </trkpt>
      <trkpt lat="44.28887" lon="0.52744">
        <ele>140.97</ele>
        <time>2012-09-01T08:21:15Z</time>
      </trkpt>
      <trkpt lat="44.28977" lon="0.52688">
        <ele>151.06</ele>
        <time>2012-09-01T08:22:14Z</time>
      </trkpt>
      <trkpt lat="44.28978" lon="0.52694">
        <ele>151.54</ele>
        <time>2012-09-01T08:22:17Z</time>
      </trkpt>
      <trkpt lat="44.29012" lon="0.52947">
        <ele>146.26</ele>
        <time>2012-09-01T08:23:13Z</time>
      </trkpt>
      <trkpt lat="44.29001" lon="0.53033">
        <ele>141.45</ele>
        <time>2012-09-01T08:23:30Z</time>
      </trkpt>
      <trkpt lat="44.28994" lon="0.53028">
        <ele>140.01</ele>
        <time>2012-09-01T08:23:37Z</time>
      </trkpt>
      <trkpt lat="44.28984" lon="0.53118">
        <ele>125.11</ele>
        <time>2012-09-01T08:24:03Z</time>
      </trkpt>
      <trkpt lat="44.28951" lon="0.53252">
        <ele>109.73</ele>
        <time>2012-09-01T08:24:23Z</time>
      </trkpt>
      <trkpt lat="44.28918" lon="0.53182">
        <ele>102.52</ele>
        <time>2012-09-01T08:24:46Z</time>
      </trkpt>
      <trkpt lat="44.28914" lon="0.5319">
        <ele>102.04</ele>
        <time>2012-09-01T08:24:52Z</time>
      </trkpt>
      <trkpt lat="44.28933" lon="0.53291">
        <ele>101.08</ele>
        <time>2012-09-01T08:25:21Z</time>
      </trkpt>
      <trkpt lat="44.29046" lon="0.53477">
        <ele>96.75</ele>
        <time>2012-09-01T08:25:58Z</time>
      </trkpt>
      <trkpt lat="44.29079" lon="0.53651">
        <ele>95.79</ele>
        <time>2012-09-01T08:26:20Z</time>
      </trkpt>
      <trkpt lat="44.29163" lon="0.53857">
        <ele>96.75</ele>
        <time>2012-09-01T08:27:01Z</time>
      </trkpt>
      <trkpt lat="44.29209" lon="0.53979">
        <ele>94.35</ele>
        <time>2012-09-01T08:27:23Z</time>
      </trkpt>
      <trkpt lat="44.29224" lon="0.53995">
        <ele>93.87</ele>
        <time>2012-09-01T08:27:39Z</time>
      </trkpt>
      <trkpt lat="44.29295" lon="0.53993">
        <ele>94.83</ele>
        <time>2012-09-01T08:28:23Z</time>
      </trkpt>
      <trkpt lat="44.29373" lon="0.54035">
        <ele>96.75</ele>
        <time>2012-09-01T08:28:57Z</time>
      </trkpt>
      <trkpt lat="44.29399" lon="0.54018">
        <ele>99.63</ele>
        <time>2012-09-01T08:29:18Z</time>
      </trkpt>
      <trkpt lat="44.29423" lon="0.5398">
        <ele>103.48</ele>
        <time>2012-09-01T08:29:40Z</time>
      </trkpt>
      <trkpt lat="44.29417" lon="0.53975">
        <ele>104.44</ele>
        <time>2012-09-01T08:29:45Z</time>
      </trkpt>
      <trkpt lat="44.29367" lon="0.53924">
        <ele>118.38</ele>
        <time>2012-09-01T08:30:41Z</time>
      </trkpt>
      <trkpt lat="44.29347" lon="0.53904">
        <ele>122.22</ele>
        <time>2012-09-01T08:31:02Z</time>
      </trkpt>
      <trkpt lat="44.2935" lon="0.53863">
        <ele>127.99</ele>
        <time>2012-09-01T08:31:29Z</time>
      </trkpt>
      <trkpt lat="44.29363" lon="0.53791">
        <ele>137.13</ele>
        <time>2012-09-01T08:32:13Z</time>
      </trkpt>
      <trkpt lat="44.29391" lon="0.53737">
        <ele>141.45</ele>
        <time>2012-09-01T08:32:49Z</time>
      </trkpt>
      <trkpt lat="44.29386" lon="0.53646">
        <ele>151.54</ele>
        <time>2012-09-01T08:33:39Z</time>
      </trkpt>
      <trkpt lat="44.29376" lon="0.53583">
        <ele>157.31</ele>
        <time>2012-09-01T08:34:10Z</time>
      </trkpt>
      <trkpt lat="44.29394" lon="0.53514">
        <ele>163.56</ele>
        <time>2012-09-01T08:34:45Z</time>
      </trkpt>
      <trkpt lat="44.29436" lon="0.53442">
        <ele>173.66</ele>
        <time>2012-09-01T08:35:39Z</time>
      </trkpt>
      <trkpt lat="44.29459" lon="0.53378">
        <ele>176.06</ele>
        <time>2012-09-01T08:36:08Z</time>
      </trkpt>
      <trkpt lat="44.29499" lon="0.53299">
        <ele>177.5</ele>
        <time>2012-09-01T08:36:36Z</time>
      </trkpt>
      <trkpt lat="44.29516" lon="0.53287">
        <ele>178.46</ele>
        <time>2012-09-01T08:36:44Z</time>
      </trkpt>
      <trkpt lat="44.29545" lon="0.53304">
        <ele>179.9</ele>
        <time>2012-09-01T08:36:58Z</time>
      </trkpt>
      <trkpt lat="44.29556" lon="0.53313">
        <ele>178.46</ele>
        <time>2012-09-01T08:37:03Z</time>
      </trkpt>
      <trkpt lat="44.29569" lon="0.53308">
        <ele>178.46</ele>
        <time>2012-09-01T08:37:09Z</time>
      </trkpt>
      <trkpt lat="44.29601" lon="0.53257">
        <ele>179.42</ele>
        <time>2012-09-01T08:37:26Z</time>
      </trkpt>
      <trkpt lat="44.29605" lon="0.53188">
        <ele>182.31</ele>
        <time>2012-09-01T08:37:43Z</time>
      </trkpt>
      <trkpt lat="44.29635" lon="0.53143">
        <ele>183.75</ele>
        <time>2012-09-01T08:37:58Z</time>
      </trkpt>
      <trkpt lat="44.29687" lon="0.53116">
        <ele>184.71</ele>
        <time>2012-09-01T08:38:16Z</time>
      </trkpt>
      <trkpt lat="44.29708" lon="0.53068">
        <ele>186.15</ele>
        <time>2012-09-01T08:38:30Z</time>
      </trkpt>
      <trkpt lat="44.29684" lon="0.52991">
        <ele>184.23</ele>
        <time>2012-09-01T08:38:48Z</time>
      </trkpt>
      <trkpt lat="44.29652" lon="0.52959">
        <ele>180.38</ele>
        <time>2012-09-01T08:38:56Z</time>
      </trkpt>
      <trkpt lat="44.29602" lon="0.52913">
        <ele>175.1</ele>
        <time>2012-09-01T08:39:07Z</time>
      </trkpt>
      <trkpt lat="44.29561" lon="0.52842">
        <ele>175.1</ele>
        <time>2012-09-01T08:39:23Z</time>
      </trkpt>
      <trkpt lat="44.29534" lon="0.52827">
        <ele>174.14</ele>
        <time>2012-09-01T08:39:30Z</time>
      </trkpt>
      <trkpt lat="44.29492" lon="0.52836">
        <ele>174.14</ele>
        <time>2012-09-01T08:39:41Z</time>
      </trkpt>
      <trkpt lat="44.29484" lon="0.52842">
        <ele>173.66</ele>
        <time>2012-09-01T08:39:43Z</time>
      </trkpt>
      <trkpt lat="44.29414" lon="0.5285">
        <ele>174.14</ele>
        <time>2012-09-01T08:40:00Z</time>
      </trkpt>
      <trkpt lat="44.29407" lon="0.52849">
        <ele>174.14</ele>
        <time>2012-09-01T08:40:02Z</time>
      </trkpt>
      <trkpt lat="44.29382" lon="0.52855">
        <ele>175.58</ele>
        <time>2012-09-01T08:40:10Z</time>
      </trkpt>
      <trkpt lat="44.29365" lon="0.52864">
        <ele>177.98</ele>
        <time>2012-09-01T08:40:17Z</time>
      </trkpt>
      <trkpt lat="44.29327" lon="0.52805">
        <ele>182.79</ele>
        <time>2012-09-01T08:40:42Z</time>
      </trkpt>
      <trkpt lat="44.29304" lon="0.52744">
        <ele>181.83</ele>
        <time>2012-09-01T08:40:58Z</time>
      </trkpt>
      <trkpt lat="44.29272" lon="0.52627">
        <ele>174.62</ele>
        <time>2012-09-01T08:41:18Z</time>
      </trkpt>
      <trkpt lat="44.29416" lon="0.52417">
        <ele>173.66</ele>
        <time>2012-09-01T08:42:13Z</time>
      </trkpt>
      <trkpt lat="44.29416" lon="0.52197">
        <ele>177.98</ele>
        <time>2012-09-01T08:43:03Z</time>
      </trkpt>
      <trkpt lat="44.29429" lon="0.52114">
        <ele>177.02</ele>
        <time>2012-09-01T08:43:18Z</time>
      </trkpt>
      <trkpt lat="44.29407" lon="0.52063">
        <ele>177.02</ele>
        <time>2012-09-01T08:43:30Z</time>
      </trkpt>
      <trkpt lat="44.29377" lon="0.51997">
        <ele>175.58</ele>
        <time>2012-09-01T08:43:46Z</time>
      </trkpt>
      <trkpt lat="44.29375" lon="0.51931">
        <ele>169.33</ele>
        <time>2012-09-01T08:44:01Z</time>
      </trkpt>
      <trkpt lat="44.29371" lon="0.51899">
        <ele>167.89</ele>
        <time>2012-09-01T08:44:06Z</time>
      </trkpt>
      <trkpt lat="44.29347" lon="0.5184">
        <ele>165.48</ele>
        <time>2012-09-01T08:44:13Z</time>
      </trkpt>
      <trkpt lat="44.29252" lon="0.51714">
        <ele>165.48</ele>
        <time>2012-09-01T08:44:37Z</time>
      </trkpt>
      <trkpt lat="44.29247" lon="0.51705">
        <ele>165.48</ele>
        <time>2012-09-01T08:44:39Z</time>
      </trkpt>
      <trkpt lat="44.29195" lon="0.51622">
        <ele>164.04</ele>
        <time>2012-09-01T08:44:57Z</time>
      </trkpt>
      <trkpt lat="44.29163" lon="0.51595">
        <ele>163.56</ele>
        <time>2012-09-01T08:45:05Z</time>
      </trkpt>
      <trkpt lat="44.29111" lon="0.51596">
        <ele>164.52</ele>
        <time>2012-09-01T08:45:16Z</time>
      </trkpt>
      <trkpt lat="44.29099" lon="0.51594">
        <ele>164.52</ele>
        <time>2012-09-01T08:45:19Z</time>
      </trkpt>
      <trkpt lat="44.29056" lon="0.51495">
        <ele>175.58</ele>
        <time>2012-09-01T08:45:57Z</time>
      </trkpt>
      <trkpt lat="44.29027" lon="0.51469">
        <ele>176.54</ele>
        <time>2012-09-01T08:46:09Z</time>
      </trkpt>
      <trkpt lat="44.28996" lon="0.5142">
        <ele>177.02</ele>
        <time>2012-09-01T08:46:24Z</time>
      </trkpt>
      <trkpt lat="44.28999" lon="0.51353">
        <ele>177.02</ele>
        <time>2012-09-01T08:46:39Z</time>
      </trkpt>
      <trkpt lat="44.29" lon="0.51341">
        <ele>176.06</ele>
        <time>2012-09-01T08:46:41Z</time>
      </trkpt>
      <trkpt lat="44.29008" lon="0.51269">
        <ele>174.14</ele>
        <time>2012-09-01T08:46:51Z</time>
      </trkpt>
      <trkpt lat="44.29002" lon="0.51168">
        <ele>173.66</ele>
        <time>2012-09-01T08:47:08Z</time>
      </trkpt>
      <trkpt lat="44.29004" lon="0.51155">
        <ele>173.17</ele>
        <time>2012-09-01T08:47:14Z</time>
      </trkpt>
      <trkpt lat="44.28843" lon="0.5089">
        <ele>172.69</ele>
        <time>2012-09-01T08:48:31Z</time>
      </trkpt>
      <trkpt lat="44.28823" lon="0.50835">
        <ele>172.21</ele>
        <time>2012-09-01T08:48:58Z</time>
      </trkpt>
      <trkpt lat="44.28762" lon="0.50864">
        <ele>174.62</ele>
        <time>2012-09-01T08:49:24Z</time>
      </trkpt>
      <trkpt lat="44.28778" lon="0.50926">
        <ele>174.14</ele>
        <time>2012-09-01T08:49:41Z</time>
      </trkpt>
      <trkpt lat="44.28803" lon="0.50911">
        <ele>175.1</ele>
        <time>2012-09-01T08:49:53Z</time>
      </trkpt>
      <trkpt lat="44.28804" lon="0.50896">
        <ele>178.46</ele>
        <time>2012-09-01T09:01:26Z</time>
      </trkpt>
      <trkpt lat="44.28801" lon="0.50897">
        <ele>178.46</ele>
        <time>2012-09-01T09:03:21Z</time>
      </trkpt>
      <trkpt lat="44.28803" lon="0.50915">
        <ele>178.46</ele>
        <time>2012-09-01T09:05:26Z</time>
      </trkpt>
      <trkpt lat="44.28792" lon="0.50924">
        <ele>177.5</ele>
        <time>2012-09-01T09:05:31Z</time>
      </trkpt>
      <trkpt lat="44.28782" lon="0.50926">
        <ele>177.5</ele>
        <time>2012-09-01T09:05:35Z</time>
      </trkpt>
      <trkpt lat="44.2877" lon="0.50872">
        <ele>177.98</ele>
        <time>2012-09-01T09:05:52Z</time>
      </trkpt>
      <trkpt lat="44.28796" lon="0.50852">
        <ele>177.02</ele>
        <time>2012-09-01T09:06:03Z</time>
      </trkpt>
      <trkpt lat="44.28846" lon="0.50819">
        <ele>177.02</ele>
        <time>2012-09-01T09:06:56Z</time>
      </trkpt>
      <trkpt lat="44.28846" lon="0.50819">
        <ele>175.1</ele>
        <time>2012-09-01T09:07:11Z</time>
      </trkpt>
    </trkseg>
  </trk>
</gpx>